createdAt,value
2018-09-04T20:32:02.623Z,101464.33
2018-09-04T20:34:51.481Z,101463.92
2018-09-04T20:37:20.657Z,101465.50
2018-09-04T20:39:49.600Z,101472.20
2018-09-04T20:42:18.405Z,101477.16
2018-09-04T20:44:48.450Z,101477.66
2018-09-04T20:47:17.823Z,101478.59
2018-09-04T20:49:46.759Z,101478.30
2018-09-04T20:52:15.957Z,101484.61
2018-09-04T20:54:44.633Z,101479.91
2018-09-04T20:57:31.019Z,101473.52
2018-09-04T21:00:13.772Z,101478.34
2018-09-04T21:02:53.479Z,101481.23
2018-09-04T21:05:33.186Z,101482.77
2018-09-04T21:08:14.567Z,101488.24
2018-09-04T21:10:43.729Z,101488.33
2018-09-04T21:13:13.148Z,101484.31
2018-09-04T21:15:41.932Z,101485.37
2018-09-04T21:18:10.791Z,101489.30
2018-09-04T21:20:39.649Z,101484.65
2018-09-04T21:23:09.363Z,101483.48
2018-09-04T21:25:38.299Z,101481.23
2018-09-04T21:28:07.618Z,101483.36
2018-09-04T21:30:36.521Z,101477.92
2018-09-04T21:33:05.533Z,101479.84
2018-09-04T21:35:34.367Z,101474.53
2018-09-04T21:38:03.310Z,101476.04
2018-09-04T21:40:32.597Z,101479.01
2018-09-04T21:43:01.883Z,101469.56
2018-09-04T21:45:30.845Z,101471.69
2018-09-04T21:47:59.478Z,101466.47
2018-09-04T21:50:28.178Z,101468.22
2018-09-04T21:52:56.813Z,101465.17
2018-09-04T21:55:25.542Z,101463.58
2018-09-04T21:57:54.176Z,101465.17
2018-09-04T22:00:27.663Z,101469.10
2018-09-04T22:02:57.761Z,101469.31
2018-09-04T22:05:26.994Z,101469.10
2018-09-04T22:07:56.987Z,101479.55
2018-09-04T22:10:26.429Z,101474.41
2018-09-04T22:12:55.203Z,101470.90
2018-09-04T22:15:24.357Z,101468.22
2018-09-04T22:17:53.025Z,101471.11
2018-09-04T22:20:21.748Z,101472.58
2018-09-04T22:22:50.698Z,101469.81
2018-09-04T22:25:20.015Z,101474.48
2018-09-04T22:27:48.842Z,101472.81
2018-09-04T22:30:17.592Z,101472.02
2018-09-04T22:32:46.872Z,101470.22
2018-09-04T22:35:15.733Z,101465.66
2018-09-04T22:37:44.528Z,101468.55
2018-09-04T22:40:13.403Z,101468.20
2018-09-04T22:42:42.759Z,101465.79
2018-09-04T22:45:11.859Z,101464.63
2018-09-04T22:47:42.076Z,101459.27
2018-09-04T22:50:15.904Z,101462.23
2018-09-04T22:52:44.788Z,101464.07
2018-09-04T22:55:14.654Z,101465.58
2018-09-04T22:57:44.441Z,101460.22
2018-09-04T23:00:14.724Z,101457.26
2018-09-04T23:02:43.475Z,101460.44
2018-09-04T23:05:12.787Z,101462.11
2018-09-04T23:07:41.672Z,101457.94
2018-09-04T23:10:11.118Z,101460.98
2018-09-04T23:12:40.063Z,101464.41
2018-09-04T23:15:09.828Z,101461.97
2018-09-04T23:17:38.634Z,101460.94
2018-09-04T23:20:08.377Z,101465.02
2018-09-04T23:22:37.158Z,101456.59
2018-09-04T23:25:05.874Z,101460.22
2018-09-04T23:27:34.847Z,101453.70
2018-09-04T23:30:03.677Z,101449.51
2018-09-04T23:32:33.208Z,101454.66
2018-09-04T23:35:01.983Z,101453.27
2018-09-04T23:37:32.128Z,101446.59
2018-09-04T23:40:01.029Z,101443.54
2018-09-04T23:42:33.417Z,101449.64
2018-09-04T23:45:04.007Z,101456.11
2018-09-04T23:47:32.838Z,101452.50
2018-09-04T23:50:02.209Z,101446.11
2018-09-04T23:52:30.994Z,101453.95
2018-09-04T23:54:59.708Z,101457.02
2018-09-04T23:57:28.547Z,101456.92
2018-09-04T23:59:57.353Z,101457.84
